BTK7063 WIHH-WIBB
Flight info
| Callsign | BTK7063 |
|---|---|
| Flight time | 1h 24m |
| Altitude | 38000 |
| Route | DOLTA A585 JATAM |
| Aircraft | A320/M-SDE3FGHIRWY/LB1 |
Departure
| Time | 2026-04-28 07:22 |
|---|---|
| Airport | Halim Perdanakusuma International Airport (WIHH) |
Arrival
| Time | 2026-04-28 08:47 |
|---|---|
| Airport | Sultan Syarif Kasim II International Airport / Roesmin Nurjadin AFB (WIBB) |
| Time | Latitude | Longitude | Altitude | Speed | Heading |
|---|---|---|---|---|---|
| 2026-04-28 07:00 | -6.26648 | 106.88533 | 92 ft | 0 kts | 335° |
| 2026-04-28 07:13 | -6.26656 | 106.88536 | 92 ft | 2 kts | 335° |
| 2026-04-28 07:13 | -6.26665 | 106.88540 | 92 ft | 2 kts | 331° |
| 2026-04-28 07:13 | -6.26676 | 106.88551 | 91 ft | 2 kts | 303° |
| 2026-04-28 07:14 | -6.26682 | 106.88564 | 91 ft | 2 kts | 280° |
| 2026-04-28 07:14 | -6.26682 | 106.88580 | 91 ft | 2 kts | 258° |
| 2026-04-28 07:14 | -6.26680 | 106.88588 | 91 ft | 1 kts | 245° |
| 2026-04-28 07:14 | -6.26677 | 106.88593 | 91 ft | 0 kts | 244° |
| 2026-04-28 07:16 | -6.26678 | 106.88591 | 91 ft | 1 kts | 244° |
| 2026-04-28 07:17 | -6.26688 | 106.88570 | 91 ft | 5 kts | 245° |
| 2026-04-28 07:17 | -6.26708 | 106.88528 | 92 ft | 7 kts | 245° |
| 2026-04-28 07:17 | -6.26733 | 106.88484 | 92 ft | 7 kts | 219° |
| 2026-04-28 07:17 | -6.26784 | 106.88488 | 92 ft | 8 kts | 153° |
| 2026-04-28 07:18 | -6.26842 | 106.88519 | 92 ft | 10 kts | 152° |
| 2026-04-28 07:18 | -6.26910 | 106.88528 | 93 ft | 10 kts | 208° |
| 2026-04-28 07:18 | -6.26957 | 106.88463 | 92 ft | 12 kts | 245° |
| 2026-04-28 07:18 | -6.26995 | 106.88380 | 93 ft | 12 kts | 245° |
| 2026-04-28 07:19 | -6.27034 | 106.88295 | 93 ft | 13 kts | 246° |
| 2026-04-28 07:19 | -6.27074 | 106.88204 | 93 ft | 14 kts | 246° |
| 2026-04-28 07:19 | -6.27116 | 106.88110 | 93 ft | 15 kts | 243° |
| 2026-04-28 07:19 | -6.27163 | 106.88013 | 93 ft | 15 kts | 245° |
| 2026-04-28 07:20 | -6.27168 | 106.87917 | 94 ft | 11 kts | 289° |
| 2026-04-28 07:20 | -6.27206 | 106.87890 | 95 ft | 9 kts | 129° |
| 2026-04-28 07:20 | -6.27205 | 106.87923 | 94 ft | 0 kts | 64° |
| 2026-04-28 07:22 | -6.27024 | 106.88313 | 93 ft | 92 kts | 66° |
| 2026-04-28 07:22 | -6.26668 | 106.89085 | 90 ft | 150 kts | 65° |
| 2026-04-28 07:22 | -6.26179 | 106.90164 | 367 ft | 173 kts | 63° |
| 2026-04-28 07:22 | -6.25685 | 106.91264 | 1031 ft | 171 kts | 65° |
| 2026-04-28 07:23 | -6.25079 | 106.92242 | 1701 ft | 166 kts | 43° |
| 2026-04-28 07:23 | -6.24237 | 106.93049 | 2088 ft | 170 kts | 56° |
| 2026-04-28 07:23 | -6.24037 | 106.94234 | 2302 ft | 185 kts | 107° |
| 2026-04-28 07:23 | -6.24903 | 106.95231 | 2554 ft | 201 kts | 154° |
| 2026-04-28 07:24 | -6.26340 | 106.95348 | 2813 ft | 217 kts | 191° |
| 2026-04-28 07:24 | -6.27693 | 106.94544 | 2984 ft | 239 kts | 229° |
| 2026-04-28 07:24 | -6.28765 | 106.93158 | 3332 ft | 255 kts | 233° |
| 2026-04-28 07:24 | -6.29868 | 106.91708 | 3719 ft | 269 kts | 232° |
| 2026-04-28 07:25 | -6.31064 | 106.90164 | 4206 ft | 280 kts | 232° |
| 2026-04-28 07:25 | -6.32282 | 106.88610 | 4881 ft | 283 kts | 231° |
| 2026-04-28 07:25 | -6.33518 | 106.87048 | 5596 ft | 285 kts | 231° |
| 2026-04-28 07:25 | -6.34766 | 106.85476 | 6321 ft | 288 kts | 231° |
| 2026-04-28 07:26 | -6.36039 | 106.83875 | 7065 ft | 291 kts | 231° |
| 2026-04-28 07:26 | -6.37311 | 106.82274 | 7803 ft | 294 kts | 230° |
| 2026-04-28 07:26 | -6.38596 | 106.80639 | 8552 ft | 297 kts | 234° |
| 2026-04-28 07:26 | -6.39496 | 106.78740 | 9244 ft | 303 kts | 255° |
| 2026-04-28 07:27 | -6.39653 | 106.76601 | 9926 ft | 308 kts | 278° |
| 2026-04-28 07:27 | -6.38887 | 106.74605 | 10489 ft | 315 kts | 305° |
| 2026-04-28 07:27 | -6.37490 | 106.72803 | 10845 ft | 331 kts | 310° |
| 2026-04-28 07:27 | -6.35990 | 106.70952 | 11170 ft | 346 kts | 310° |
| 2026-04-28 07:28 | -6.34451 | 106.69035 | 11711 ft | 353 kts | 309° |
| 2026-04-28 07:28 | -6.32886 | 106.67062 | 12349 ft | 357 kts | 309° |
| 2026-04-28 07:28 | -6.31323 | 106.65076 | 12957 ft | 360 kts | 309° |
| 2026-04-28 07:28 | -6.29753 | 106.63073 | 13536 ft | 364 kts | 309° |
| 2026-04-28 07:29 | -6.28174 | 106.61053 | 14123 ft | 366 kts | 309° |
| 2026-04-28 07:29 | -6.26589 | 106.59023 | 14663 ft | 370 kts | 309° |
| 2026-04-28 07:29 | -6.24981 | 106.56963 | 15196 ft | 373 kts | 309° |
| 2026-04-28 07:29 | -6.23374 | 106.54904 | 15720 ft | 376 kts | 308° |
| 2026-04-28 07:30 | -6.21746 | 106.52819 | 16258 ft | 378 kts | 308° |
| 2026-04-28 07:30 | -6.20111 | 106.50726 | 16749 ft | 381 kts | 308° |
| 2026-04-28 07:30 | -6.18461 | 106.48612 | 17230 ft | 383 kts | 308° |
| 2026-04-28 07:30 | -6.16808 | 106.46494 | 17704 ft | 385 kts | 308° |
| 2026-04-28 07:31 | -6.15137 | 106.44353 | 18152 ft | 388 kts | 308° |
| 2026-04-28 07:31 | -6.13449 | 106.42191 | 18578 ft | 391 kts | 308° |
| 2026-04-28 07:31 | -6.11753 | 106.40020 | 19021 ft | 393 kts | 308° |
| 2026-04-28 07:31 | -6.09967 | 106.37869 | 19432 ft | 395 kts | 314° |
| 2026-04-28 07:32 | -6.07881 | 106.36036 | 19835 ft | 397 kts | 324° |
| 2026-04-28 07:32 | -6.05502 | 106.34558 | 20224 ft | 398 kts | 333° |
| 2026-04-28 07:32 | -6.03017 | 106.33266 | 20602 ft | 401 kts | 334° |
| 2026-04-28 07:32 | -6.00467 | 106.31975 | 20972 ft | 403 kts | 334° |
| 2026-04-28 07:33 | -5.97943 | 106.30695 | 21325 ft | 406 kts | 334° |
| 2026-04-28 07:33 | -5.95390 | 106.29392 | 21678 ft | 408 kts | 334° |
| 2026-04-28 07:33 | -5.92804 | 106.28065 | 22021 ft | 411 kts | 334° |
| 2026-04-28 07:33 | -5.90255 | 106.26754 | 22378 ft | 412 kts | 334° |
| 2026-04-28 07:34 | -5.87644 | 106.25407 | 22735 ft | 415 kts | 333° |
| 2026-04-28 07:34 | -5.85085 | 106.24088 | 23094 ft | 416 kts | 333° |
| 2026-04-28 07:34 | -5.82456 | 106.22732 | 23475 ft | 417 kts | 333° |
| 2026-04-28 07:34 | -5.79858 | 106.21390 | 23819 ft | 419 kts | 333° |
| 2026-04-28 07:35 | -5.77213 | 106.20025 | 24169 ft | 421 kts | 333° |
| 2026-04-28 07:35 | -5.74596 | 106.18675 | 24520 ft | 422 kts | 333° |
| 2026-04-28 07:35 | -5.71942 | 106.17304 | 24855 ft | 424 kts | 333° |
| 2026-04-28 07:35 | -5.69313 | 106.15947 | 25184 ft | 425 kts | 333° |
| 2026-04-28 07:36 | -5.66642 | 106.14569 | 25521 ft | 427 kts | 333° |
| 2026-04-28 07:36 | -5.63967 | 106.13188 | 25846 ft | 428 kts | 334° |
| 2026-04-28 07:36 | -5.61313 | 106.11817 | 26132 ft | 430 kts | 333° |
| 2026-04-28 07:36 | -5.58630 | 106.10432 | 26424 ft | 432 kts | 334° |
| 2026-04-28 07:37 | -5.55910 | 106.09029 | 26716 ft | 434 kts | 334° |
| 2026-04-28 07:37 | -5.53192 | 106.07627 | 27015 ft | 436 kts | 334° |
| 2026-04-28 07:37 | -5.50479 | 106.06226 | 27299 ft | 437 kts | 334° |
| 2026-04-28 07:37 | -5.47770 | 106.04829 | 27576 ft | 439 kts | 334° |
| 2026-04-28 07:38 | -5.45000 | 106.03430 | 27847 ft | 441 kts | 336° |
| 2026-04-28 07:38 | -5.42152 | 106.02165 | 28128 ft | 442 kts | 339° |
| 2026-04-28 07:38 | -5.39250 | 106.01076 | 28409 ft | 443 kts | 342° |
| 2026-04-28 07:38 | -5.36309 | 106.00113 | 28685 ft | 444 kts | 343° |
| 2026-04-28 07:39 | -5.33308 | 105.99152 | 28969 ft | 445 kts | 344° |
| 2026-04-28 07:39 | -5.30349 | 105.98209 | 29238 ft | 446 kts | 344° |
| 2026-04-28 07:39 | -5.27350 | 105.97248 | 29501 ft | 448 kts | 344° |
| 2026-04-28 07:39 | -5.24375 | 105.96294 | 29770 ft | 449 kts | 344° |
| 2026-04-28 07:40 | -5.21349 | 105.95322 | 30036 ft | 450 kts | 344° |
| 2026-04-28 07:40 | -5.18344 | 105.94358 | 30293 ft | 451 kts | 343° |
| 2026-04-28 07:40 | -5.15329 | 105.93304 | 30544 ft | 453 kts | 341° |
| 2026-04-28 07:40 | -5.12404 | 105.92097 | 30792 ft | 455 kts | 338° |
| 2026-04-28 07:41 | -5.09495 | 105.90702 | 31033 ft | 457 kts | 334° |
| 2026-04-28 07:41 | -5.06673 | 105.89157 | 31274 ft | 459 kts | 332° |
| 2026-04-28 07:41 | -5.03894 | 105.87576 | 31510 ft | 460 kts | 332° |
| 2026-04-28 07:41 | -5.01082 | 105.85967 | 31735 ft | 461 kts | 332° |
| 2026-04-28 07:42 | -4.98262 | 105.84355 | 32021 ft | 460 kts | 332° |
| 2026-04-28 07:42 | -4.95484 | 105.82768 | 32354 ft | 458 kts | 332° |
| 2026-04-28 07:42 | -4.92700 | 105.81179 | 32688 ft | 457 kts | 332° |
| 2026-04-28 07:42 | -4.89904 | 105.79585 | 33016 ft | 456 kts | 333° |
| 2026-04-28 07:43 | -4.87148 | 105.78017 | 33334 ft | 455 kts | 332° |
| 2026-04-28 07:43 | -4.84359 | 105.76430 | 33659 ft | 455 kts | 332° |
| 2026-04-28 07:43 | -4.81607 | 105.74863 | 33988 ft | 454 kts | 332° |
| 2026-04-28 07:43 | -4.78819 | 105.73277 | 34325 ft | 453 kts | 332° |
| 2026-04-28 07:44 | -4.76078 | 105.71716 | 34645 ft | 452 kts | 332° |
| 2026-04-28 07:44 | -4.73315 | 105.70144 | 34946 ft | 451 kts | 332° |
| 2026-04-28 07:44 | -4.70577 | 105.68585 | 35226 ft | 451 kts | 332° |
| 2026-04-28 07:44 | -4.67850 | 105.67032 | 35480 ft | 451 kts | 332° |
| 2026-04-28 07:45 | -4.65091 | 105.65462 | 35720 ft | 451 kts | 332° |
| 2026-04-28 07:45 | -4.62322 | 105.63886 | 35957 ft | 451 kts | 332° |
| 2026-04-28 07:45 | -4.59589 | 105.62331 | 36159 ft | 452 kts | 332° |
| 2026-04-28 07:45 | -4.56813 | 105.60752 | 36326 ft | 453 kts | 332° |
| 2026-04-28 07:46 | -4.54066 | 105.59189 | 36474 ft | 454 kts | 332° |
| 2026-04-28 07:46 | -4.51276 | 105.57602 | 36617 ft | 455 kts | 332° |
| 2026-04-28 07:46 | -4.48512 | 105.56031 | 36773 ft | 456 kts | 332° |
| 2026-04-28 07:46 | -4.45716 | 105.54441 | 36931 ft | 457 kts | 332° |
| 2026-04-28 07:47 | -4.42945 | 105.52865 | 37060 ft | 458 kts | 332° |
| 2026-04-28 07:47 | -4.40130 | 105.51263 | 37186 ft | 459 kts | 332° |
| 2026-04-28 07:47 | -4.37319 | 105.49665 | 37318 ft | 459 kts | 332° |
| 2026-04-28 07:47 | -4.34539 | 105.48083 | 37439 ft | 460 kts | 332° |
| 2026-04-28 07:48 | -4.31705 | 105.46473 | 37556 ft | 461 kts | 332° |
| 2026-04-28 07:48 | -4.28882 | 105.44868 | 37665 ft | 462 kts | 332° |
| 2026-04-28 07:48 | -4.26019 | 105.43241 | 37766 ft | 462 kts | 332° |
| 2026-04-28 07:48 | -4.23183 | 105.41629 | 37794 ft | 464 kts | 332° |
| 2026-04-28 07:49 | -4.17546 | 105.38427 | 37802 ft | 464 kts | 332° |
| 2026-04-28 07:49 | -4.11852 | 105.35192 | 37801 ft | 464 kts | 332° |
| 2026-04-28 07:50 | -4.06171 | 105.31963 | 37797 ft | 464 kts | 332° |
| 2026-04-28 07:50 | -4.00485 | 105.28732 | 37794 ft | 463 kts | 332° |
| 2026-04-28 07:51 | -3.94801 | 105.25505 | 37792 ft | 464 kts | 332° |
| 2026-04-28 07:51 | -3.89129 | 105.22292 | 37792 ft | 464 kts | 333° |
| 2026-04-28 07:52 | -3.83405 | 105.19074 | 37793 ft | 465 kts | 333° |
| 2026-04-28 07:52 | -3.77716 | 105.15874 | 37794 ft | 464 kts | 332° |
| 2026-04-28 07:53 | -3.72049 | 105.12684 | 37795 ft | 464 kts | 332° |
| 2026-04-28 07:53 | -3.66354 | 105.09478 | 37794 ft | 463 kts | 332° |
| 2026-04-28 07:54 | -3.60668 | 105.06276 | 37788 ft | 463 kts | 333° |
| 2026-04-28 07:54 | -3.54988 | 105.03081 | 37780 ft | 463 kts | 333° |
| 2026-04-28 07:55 | -3.49312 | 104.99888 | 37775 ft | 464 kts | 332° |
| 2026-04-28 07:55 | -3.43623 | 104.96689 | 37777 ft | 464 kts | 332° |
| 2026-04-28 07:56 | -3.37937 | 104.93489 | 37778 ft | 464 kts | 332° |
| 2026-04-28 07:56 | -3.32251 | 104.90291 | 37778 ft | 464 kts | 332° |
| 2026-04-28 07:57 | -3.26568 | 104.87096 | 37778 ft | 464 kts | 332° |
| 2026-04-28 07:57 | -3.20881 | 104.83897 | 37774 ft | 464 kts | 332° |
| 2026-04-28 07:58 | -3.15199 | 104.80703 | 37770 ft | 464 kts | 332° |
| 2026-04-28 07:58 | -3.09540 | 104.77522 | 37775 ft | 464 kts | 332° |
| 2026-04-28 07:59 | -3.03849 | 104.74322 | 37781 ft | 464 kts | 332° |
| 2026-04-28 07:59 | -2.98192 | 104.71142 | 37782 ft | 464 kts | 332° |
| 2026-04-28 08:00 | -2.92531 | 104.67909 | 37784 ft | 465 kts | 329° |
| 2026-04-28 08:00 | -2.87159 | 104.64194 | 37784 ft | 466 kts | 323° |
| 2026-04-28 08:01 | -2.82235 | 104.59895 | 37786 ft | 467 kts | 317° |
| 2026-04-28 08:01 | -2.77558 | 104.55329 | 37784 ft | 467 kts | 317° |
| 2026-04-28 08:02 | -2.72876 | 104.50746 | 37780 ft | 467 kts | 317° |
| 2026-04-28 08:02 | -2.68209 | 104.46189 | 37783 ft | 467 kts | 316° |
| 2026-04-28 08:03 | -2.63526 | 104.41620 | 37786 ft | 467 kts | 317° |
| 2026-04-28 08:03 | -2.58842 | 104.37053 | 37784 ft | 467 kts | 317° |
| 2026-04-28 08:04 | -2.54162 | 104.32491 | 37785 ft | 466 kts | 317° |
| 2026-04-28 08:04 | -2.49483 | 104.27933 | 37787 ft | 467 kts | 317° |
| 2026-04-28 08:05 | -2.44787 | 104.23356 | 37789 ft | 467 kts | 317° |
| 2026-04-28 08:05 | -2.40131 | 104.18820 | 37792 ft | 467 kts | 317° |
| 2026-04-28 08:06 | -2.35440 | 104.14249 | 37794 ft | 467 kts | 317° |
| 2026-04-28 08:06 | -2.30773 | 104.09702 | 37794 ft | 466 kts | 317° |
| 2026-04-28 08:07 | -2.26070 | 104.05121 | 37798 ft | 467 kts | 317° |
| 2026-04-28 08:07 | -2.21377 | 104.00549 | 37796 ft | 467 kts | 317° |
| 2026-04-28 08:08 | -2.16712 | 103.96007 | 37796 ft | 467 kts | 317° |
| 2026-04-28 08:08 | -2.12004 | 103.91422 | 37794 ft | 466 kts | 317° |
| 2026-04-28 08:09 | -2.07310 | 103.86852 | 37796 ft | 466 kts | 317° |
| 2026-04-28 08:09 | -2.02649 | 103.82314 | 37794 ft | 466 kts | 317° |
| 2026-04-28 08:10 | -1.97945 | 103.77732 | 37793 ft | 466 kts | 317° |
| 2026-04-28 08:10 | -1.93290 | 103.73201 | 37794 ft | 466 kts | 317° |
| 2026-04-28 08:11 | -1.88616 | 103.68652 | 37794 ft | 466 kts | 317° |
| 2026-04-28 08:11 | -1.83916 | 103.64078 | 37794 ft | 467 kts | 317° |
| 2026-04-28 08:12 | -1.79236 | 103.59524 | 37795 ft | 467 kts | 317° |
| 2026-04-28 08:12 | -1.74560 | 103.54973 | 37796 ft | 467 kts | 317° |
| 2026-04-28 08:13 | -1.69873 | 103.50410 | 37796 ft | 467 kts | 317° |
| 2026-04-28 08:13 | -1.65221 | 103.45885 | 37795 ft | 467 kts | 317° |
| 2026-04-28 08:14 | -1.60516 | 103.41305 | 37793 ft | 467 kts | 317° |
| 2026-04-28 08:14 | -1.55835 | 103.36752 | 37789 ft | 467 kts | 317° |
| 2026-04-28 08:15 | -1.51164 | 103.32208 | 37787 ft | 468 kts | 317° |
| 2026-04-28 08:15 | -1.46450 | 103.27623 | 37786 ft | 468 kts | 317° |
| 2026-04-28 08:16 | -1.41723 | 103.23023 | 37785 ft | 468 kts | 317° |
| 2026-04-28 08:16 | -1.37010 | 103.18437 | 37789 ft | 468 kts | 317° |
| 2026-04-28 08:17 | -1.32310 | 103.13866 | 37796 ft | 468 kts | 317° |
| 2026-04-28 08:17 | -1.27631 | 103.09317 | 37804 ft | 468 kts | 317° |
| 2026-04-28 08:18 | -1.22929 | 103.04745 | 37806 ft | 468 kts | 317° |
| 2026-04-28 08:18 | -1.18217 | 103.00160 | 37807 ft | 468 kts | 317° |
| 2026-04-28 08:19 | -1.13502 | 102.95572 | 37807 ft | 469 kts | 317° |
| 2026-04-28 08:19 | -1.08784 | 102.90984 | 37809 ft | 469 kts | 317° |
| 2026-04-28 08:20 | -1.04031 | 102.86369 | 37811 ft | 469 kts | 317° |
| 2026-04-28 08:20 | -0.99306 | 102.81785 | 37813 ft | 469 kts | 317° |
| 2026-04-28 08:21 | -0.94589 | 102.77206 | 37814 ft | 469 kts | 317° |
| 2026-04-28 08:21 | -0.89846 | 102.72601 | 37813 ft | 469 kts | 317° |
| 2026-04-28 08:22 | -0.87083 | 102.69919 | 37812 ft | 470 kts | 317° |
| 2026-04-28 08:22 | -0.82363 | 102.65337 | 37803 ft | 471 kts | 317° |
| 2026-04-28 08:23 | -0.80000 | 102.63042 | 37480 ft | 471 kts | 317° |
| 2026-04-28 08:23 | -0.77637 | 102.60746 | 37012 ft | 467 kts | 317° |
| 2026-04-28 08:23 | -0.75279 | 102.58455 | 36420 ft | 464 kts | 317° |
| 2026-04-28 08:23 | -0.73049 | 102.56290 | 35740 ft | 463 kts | 317° |
| 2026-04-28 08:24 | -0.70700 | 102.54009 | 34971 ft | 463 kts | 318° |
| 2026-04-28 08:24 | -0.68370 | 102.51746 | 34223 ft | 463 kts | 318° |
| 2026-04-28 08:24 | -0.66032 | 102.49477 | 33483 ft | 463 kts | 318° |
| 2026-04-28 08:24 | -0.63697 | 102.47209 | 32695 ft | 465 kts | 318° |
| 2026-04-28 08:25 | -0.61387 | 102.44968 | 31952 ft | 466 kts | 318° |
| 2026-04-28 08:25 | -0.59007 | 102.42660 | 31216 ft | 466 kts | 318° |
| 2026-04-28 08:25 | -0.56678 | 102.40402 | 30747 ft | 463 kts | 318° |
| 2026-04-28 08:26 | -0.52072 | 102.35931 | 29796 ft | 455 kts | 318° |
| 2026-04-28 08:26 | -0.49764 | 102.33691 | 29320 ft | 451 kts | 318° |
| 2026-04-28 08:26 | -0.47499 | 102.31493 | 28846 ft | 447 kts | 318° |
| 2026-04-28 08:26 | -0.45267 | 102.29329 | 28368 ft | 443 kts | 318° |
| 2026-04-28 08:27 | -0.43043 | 102.27171 | 27888 ft | 439 kts | 318° |
| 2026-04-28 08:27 | -0.40826 | 102.25019 | 27382 ft | 435 kts | 318° |
| 2026-04-28 08:27 | -0.38647 | 102.22903 | 26873 ft | 431 kts | 318° |
| 2026-04-28 08:27 | -0.36477 | 102.20798 | 26361 ft | 427 kts | 317° |
| 2026-04-28 08:28 | -0.34350 | 102.18732 | 25850 ft | 424 kts | 318° |
| 2026-04-28 08:28 | -0.32220 | 102.16666 | 25335 ft | 421 kts | 317° |
| 2026-04-28 08:28 | -0.30102 | 102.14611 | 24838 ft | 417 kts | 317° |
| 2026-04-28 08:28 | -0.27989 | 102.12562 | 24331 ft | 414 kts | 317° |
| 2026-04-28 08:29 | -0.25917 | 102.10558 | 23826 ft | 411 kts | 317° |
| 2026-04-28 08:29 | -0.23849 | 102.08557 | 23313 ft | 409 kts | 317° |
| 2026-04-28 08:29 | -0.21792 | 102.06569 | 22797 ft | 407 kts | 317° |
| 2026-04-28 08:29 | -0.19764 | 102.04607 | 22276 ft | 406 kts | 317° |
| 2026-04-28 08:30 | -0.17712 | 102.02621 | 21769 ft | 404 kts | 317° |
| 2026-04-28 08:30 | -0.15706 | 102.00678 | 21286 ft | 401 kts | 317° |
| 2026-04-28 08:30 | -0.13693 | 101.98729 | 20816 ft | 398 kts | 317° |
| 2026-04-28 08:30 | -0.11682 | 101.96781 | 20372 ft | 394 kts | 317° |
| 2026-04-28 08:31 | -0.09729 | 101.94892 | 19942 ft | 391 kts | 317° |
| 2026-04-28 08:31 | -0.07744 | 101.92970 | 19481 ft | 388 kts | 317° |
| 2026-04-28 08:31 | -0.05787 | 101.91074 | 19030 ft | 385 kts | 317° |
| 2026-04-28 08:31 | -0.03850 | 101.89198 | 18574 ft | 383 kts | 317° |
| 2026-04-28 08:32 | -0.01915 | 101.87321 | 18116 ft | 380 kts | 317° |
| 2026-04-28 08:32 | -0.00014 | 101.85479 | 17663 ft | 378 kts | 317° |
| 2026-04-28 08:32 | 0.01897 | 101.83627 | 17190 ft | 376 kts | 317° |
| 2026-04-28 08:32 | 0.03770 | 101.81812 | 16729 ft | 374 kts | 317° |
| 2026-04-28 08:33 | 0.05655 | 101.79984 | 16243 ft | 372 kts | 317° |
| 2026-04-28 08:33 | 0.07554 | 101.78159 | 15869 ft | 365 kts | 319° |
| 2026-04-28 08:33 | 0.09473 | 101.76547 | 15787 ft | 350 kts | 324° |
| 2026-04-28 08:33 | 0.11438 | 101.75158 | 15479 ft | 343 kts | 328° |
| 2026-04-28 08:34 | 0.13476 | 101.73845 | 15144 ft | 338 kts | 329° |
| 2026-04-28 08:34 | 0.15456 | 101.72588 | 14824 ft | 333 kts | 329° |
| 2026-04-28 08:34 | 0.17408 | 101.71346 | 14516 ft | 328 kts | 329° |
| 2026-04-28 08:34 | 0.19346 | 101.70110 | 14200 ft | 324 kts | 329° |
| 2026-04-28 08:35 | 0.21247 | 101.68894 | 13889 ft | 319 kts | 329° |
| 2026-04-28 08:35 | 0.23127 | 101.67691 | 13531 ft | 316 kts | 329° |
| 2026-04-28 08:35 | 0.25006 | 101.66488 | 13149 ft | 315 kts | 329° |
| 2026-04-28 08:35 | 0.26887 | 101.65284 | 12762 ft | 313 kts | 329° |
| 2026-04-28 08:36 | 0.28745 | 101.64094 | 12376 ft | 311 kts | 328° |
| 2026-04-28 08:36 | 0.30575 | 101.62924 | 12014 ft | 309 kts | 329° |
| 2026-04-28 08:36 | 0.32404 | 101.61758 | 11635 ft | 307 kts | 329° |
| 2026-04-28 08:36 | 0.34229 | 101.60592 | 11244 ft | 305 kts | 329° |
| 2026-04-28 08:37 | 0.36029 | 101.59443 | 10868 ft | 303 kts | 329° |
| 2026-04-28 08:37 | 0.37867 | 101.58340 | 10462 ft | 301 kts | 337° |
| 2026-04-28 08:37 | 0.39871 | 101.57752 | 10066 ft | 297 kts | 355° |
| 2026-04-28 08:37 | 0.41963 | 101.57641 | 9671 ft | 294 kts | 0° |
| 2026-04-28 08:38 | 0.44057 | 101.57617 | 9297 ft | 292 kts | 1° |
| 2026-04-28 08:38 | 0.46126 | 101.57598 | 8924 ft | 291 kts | 1° |
| 2026-04-28 08:38 | 0.48167 | 101.57569 | 8560 ft | 289 kts | 1° |
| 2026-04-28 08:38 | 0.50221 | 101.57533 | 8180 ft | 287 kts | 1° |
| 2026-04-28 08:39 | 0.52242 | 101.57492 | 7814 ft | 286 kts | 0° |
| 2026-04-28 08:39 | 0.54247 | 101.57451 | 7469 ft | 284 kts | 0° |
| 2026-04-28 08:39 | 0.56245 | 101.57342 | 7109 ft | 283 kts | 356° |
| 2026-04-28 08:39 | 0.58225 | 101.57127 | 6760 ft | 282 kts | 355° |
| 2026-04-28 08:40 | 0.60208 | 101.56897 | 6389 ft | 281 kts | 355° |
| 2026-04-28 08:40 | 0.62152 | 101.56672 | 6019 ft | 280 kts | 355° |
| 2026-04-28 08:40 | 0.64116 | 101.56444 | 5648 ft | 279 kts | 354° |
| 2026-04-28 08:40 | 0.65984 | 101.55913 | 5239 ft | 281 kts | 329° |
| 2026-04-28 08:41 | 0.67318 | 101.54465 | 4846 ft | 282 kts | 295° |
| 2026-04-28 08:41 | 0.67763 | 101.52575 | 4491 ft | 280 kts | 275° |
| 2026-04-28 08:41 | 0.67931 | 101.50626 | 4173 ft | 277 kts | 275° |
| 2026-04-28 08:41 | 0.68121 | 101.48692 | 3910 ft | 269 kts | 276° |
| 2026-04-28 08:42 | 0.68218 | 101.46849 | 3534 ft | 259 kts | 261° |
| 2026-04-28 08:42 | 0.67458 | 101.45267 | 3356 ft | 246 kts | 221° |
| 2026-04-28 08:42 | 0.65988 | 101.44550 | 3260 ft | 229 kts | 183° |
| 2026-04-28 08:42 | 0.64418 | 101.44602 | 3160 ft | 216 kts | 173° |
| 2026-04-28 08:43 | 0.62938 | 101.44713 | 3068 ft | 205 kts | 175° |
| 2026-04-28 08:43 | 0.61550 | 101.44756 | 2974 ft | 190 kts | 176° |
| 2026-04-28 08:43 | 0.60226 | 101.44788 | 2680 ft | 180 kts | 176° |
| 2026-04-28 08:43 | 0.58988 | 101.44797 | 2402 ft | 171 kts | 178° |
| 2026-04-28 08:44 | 0.57819 | 101.44785 | 2179 ft | 161 kts | 178° |
| 2026-04-28 08:44 | 0.56714 | 101.44763 | 1971 ft | 153 kts | 178° |
| 2026-04-28 08:44 | 0.55624 | 101.44739 | 1808 ft | 153 kts | 179° |
| 2026-04-28 08:44 | 0.54576 | 101.44710 | 1605 ft | 143 kts | 179° |
| 2026-04-28 08:45 | 0.53587 | 101.44685 | 1411 ft | 139 kts | 179° |
| 2026-04-28 08:45 | 0.52607 | 101.44659 | 1242 ft | 139 kts | 180° |
| 2026-04-28 08:45 | 0.51628 | 101.44632 | 1060 ft | 139 kts | 180° |
| 2026-04-28 08:45 | 0.50652 | 101.44603 | 882 ft | 138 kts | 180° |
| 2026-04-28 08:46 | 0.49682 | 101.44575 | 703 ft | 137 kts | 180° |
| 2026-04-28 08:46 | 0.48718 | 101.44539 | 510 ft | 137 kts | 181° |
| 2026-04-28 08:46 | 0.47749 | 101.44498 | 278 ft | 135 kts | 181° |
| 2026-04-28 08:46 | 0.46805 | 101.44469 | 152 ft | 133 kts | 181° |
| 2026-04-28 08:47 | 0.45992 | 101.44452 | 135 ft | 91 kts | 182° |
| 2026-04-28 08:47 | 0.45522 | 101.44434 | 129 ft | 41 kts | 182° |
| 2026-04-28 08:47 | 0.45278 | 101.44436 | 127 ft | 25 kts | 172° |
| 2026-04-28 08:47 | 0.45169 | 101.44427 | 125 ft | 6 kts | 295° |
| 2026-04-28 08:48 | 0.45201 | 101.44428 | 126 ft | 5 kts | 3° |
| 2026-04-28 08:48 | 0.45249 | 101.44428 | 127 ft | 8 kts | 1° |
| 2026-04-28 08:48 | 0.45328 | 101.44430 | 128 ft | 14 kts | 1° |
| 2026-04-28 08:48 | 0.45459 | 101.44434 | 128 ft | 22 kts | 1° |
| 2026-04-28 08:49 | 0.45621 | 101.44438 | 130 ft | 22 kts | 1° |
| 2026-04-28 08:49 | 0.45770 | 101.44443 | 132 ft | 20 kts | 1° |
| 2026-04-28 08:49 | 0.45928 | 101.44447 | 134 ft | 23 kts | 1° |
| 2026-04-28 08:49 | 0.46105 | 101.44453 | 136 ft | 26 kts | 1° |
| 2026-04-28 08:50 | 0.46285 | 101.44458 | 140 ft | 20 kts | 1° |
| 2026-04-28 08:50 | 0.46382 | 101.44498 | 140 ft | 15 kts | 82° |
| 2026-04-28 08:50 | 0.46390 | 101.44576 | 140 ft | 5 kts | 51° |
| 2026-04-28 08:50 | 0.46431 | 101.44591 | 140 ft | 6 kts | 3° |
| 2026-04-28 08:51 | 0.46476 | 101.44595 | 141 ft | 4 kts | 23° |
| 2026-04-28 08:51 | 0.46482 | 101.44631 | 140 ft | 6 kts | 99° |
| 2026-04-28 08:51 | 0.46480 | 101.44672 | 141 ft | 3 kts | 92° |
| 2026-04-28 08:51 | 0.46480 | 101.44682 | 141 ft | 0 kts | 91° |